Time;durP1;ratioP1;P1;durP2;ratioP2;P2;SDS_P1;SDS_P2;PMS_P1;PMS_P2;Temp;Humidity;BMP_temperature;BMP_pressure;BME280_temperature;BME280_humidity;BME280_pressure;Samples;Min_cycle;Max_cycle;Signal;HPM_P1;HPM_P2
2021/04/16 17:15:24;;;;;;;1999.90;999.90;;;;;;;3.94;100.00;98506.78;5025943;28;20092;-63
2021/04/16 17:17:50;;;;;;;1999.90;999.90;;;;;;;3.89;100.00;98504.88;5023070;28;20064;-63
2021/04/16 17:20:19;;;;;;;1999.90;999.90;;;;;;;3.81;100.00;98510.91;5022127;28;20056;-63
2021/04/16 17:22:46;;;;;;;1999.90;999.90;;;;;;;3.79;100.00;98511.19;5020937;28;20080;-63
2021/04/16 17:25:13;;;;;;;1999.90;999.90;;;;;;;4.09;100.00;98512.19;5024118;28;20065;-63
2021/04/16 17:27:39;;;;;;;1999.90;999.90;;;;;;;4.39;100.00;98513.16;5023198;28;20064;-63
2021/04/16 17:30:19;;;;;;;1999.90;999.90;;;;;;;4.81;100.00;98517.31;5022003;28;20430;-63
2021/04/16 17:32:45;;;;;;;1999.90;999.90;;;;;;;4.30;100.00;98512.94;5021300;28;20049;-63
2021/04/16 17:35:12;;;;;;;1999.90;999.90;;;;;;;4.38;100.00;98514.28;5019347;28;20059;-63
2021/04/16 17:37:39;;;;;;;1999.90;999.90;;;;;;;4.25;100.00;98520.34;5006864;28;20049;-63
2021/04/16 17:40:06;;;;;;;1999.90;999.90;;;;;;;4.56;100.00;98521.84;5016671;28;20100;-63
2021/04/16 17:42:40;;;;;;;1999.90;999.90;;;;;;;4.14;100.00;98525.88;5024338;28;20054;-62
2021/04/16 17:45:18;;;;;;;1999.90;999.90;;;;;;;3.70;100.00;98532.00;5018646;28;20082;-62
2021/04/16 17:47:45;;;;;;;1999.90;999.90;;;;;;;4.13;100.00;98528.88;5023759;28;20192;-62
2021/04/16 17:50:20;;;;;;;1999.90;999.90;;;;;;;4.29;100.00;98529.63;5017611;28;20053;-63
2021/04/16 17:52:46;;;;;;;1999.90;999.90;;;;;;;3.92;100.00;98539.88;5003231;28;20057;-64
2021/04/16 17:55:13;;;;;;;1999.90;999.90;;;;;;;4.17;100.00;98533.53;5020077;28;20068;-64
2021/04/16 17:57:39;;;;;;;1999.90;999.90;;;;;;;4.44;100.00;98540.53;5019015;28;20524;-64
2021/04/16 18:00:07;;;;;;;1999.90;999.90;;;;;;;4.04;100.00;98537.66;5019439;28;20057;-64
2021/04/16 18:02:33;;;;;;;1999.90;999.90;;;;;;;3.95;100.00;98538.53;5020998;28;20555;-62
2021/04/16 18:05:00;;;;;;;1999.90;999.90;;;;;;;4.01;100.00;98538.22;5022588;28;20152;-62
2021/04/16 18:07:33;;;;;;;1999.90;999.90;;;;;;;3.91;100.00;98545.63;5018877;28;20603;-62
2021/04/16 18:10:00;;;;;;;1999.90;999.90;;;;;;;4.00;100.00;98543.97;5021699;28;20057;-63
2021/04/16 18:12:27;;;;;;;1999.90;999.90;;;;;;;3.92;100.00;98539.06;5018011;28;20050;-63
2021/04/16 18:14:53;;;;;;;1999.90;999.90;;;;;;;3.68;100.00;98545.13;4999355;28;20064;-64
2021/04/16 18:17:20;;;;;;;1999.90;999.90;;;;;;;3.83;100.00;98547.84;5019281;28;20049;-63
2021/04/16 18:19:46;;;;;;;1999.90;999.90;;;;;;;3.88;100.00;98550.56;5021819;28;20152;-63
2021/04/16 18:22:33;;;;;;;1999.90;999.90;;;;;;;4.02;100.00;98553.53;5022232;28;20107;-64
2021/04/16 18:25:03;;;;;;;1999.90;999.90;;;;;;;3.94;100.00;98553.28;5005522;28;20057;-62
2021/04/16 18:27:29;;;;;;;1999.90;999.90;;;;;;;3.64;100.00;98565.91;5021702;28;20061;-63
2021/04/16 18:29:57;;;;;;;1999.90;999.90;;;;;;;3.84;100.00;98560.44;5021391;28;20056;-63
2021/04/16 18:32:23;;;;;;;1999.90;999.90;;;;;;;3.85;100.00;98562.03;5022966;28;20061;-63
2021/04/16 18:34:50;;;;;;;1999.90;999.90;;;;;;;3.90;100.00;98563.97;5021105;28;20053;-63
2021/04/16 18:37:27;;;;;;;1999.90;999.90;;;;;;;3.61;100.00;98561.00;5023396;28;20505;-63
2021/04/16 18:39:59;;;;;;;1999.90;999.90;;;;;;;3.76;100.00;98566.44;5016403;28;20464;-63
2021/04/16 18:42:26;;;;;;;1999.90;999.90;;;;;;;3.44;100.00;98561.25;5021513;28;20428;-63
2021/04/16 18:44:54;;;;;;;1999.90;999.90;;;;;;;3.40;100.00;98566.47;5018467;28;20400;-63
2021/04/16 18:47:21;;;;;;;1999.90;999.90;;;;;;;3.62;100.00;98577.13;5019284;28;20115;-63
2021/04/16 18:49:47;;;;;;;1999.90;999.90;;;;;;;3.73;100.00;98577.13;5021833;28;20602;-63
2021/04/16 18:52:22;;;;;;;1999.90;999.90;;;;;;;3.90;100.00;98568.63;5019491;28;20111;-63
2021/04/16 18:54:50;;;;;;;1999.90;999.90;;;;;;;3.92;100.00;98569.97;5018873;28;20053;-63
2021/04/16 18:57:17;;;;;;;1999.90;999.90;;;;;;;3.87;100.00;98580.91;5021048;28;20053;-63
2021/04/16 18:59:43;;;;;;;1999.90;999.90;;;;;;;3.98;100.00;98568.06;5022084;28;20493;-63
2021/04/16 19:02:09;;;;;;;1999.90;999.90;;;;;;;4.13;100.00;98572.69;5001518;28;20092;-63
2021/04/16 19:04:35;;;;;;;1999.90;999.90;;;;;;;3.99;100.00;98572.41;5019252;28;20053;-64
2021/04/16 19:07:14;;;;;;;1999.90;999.90;;;;;;;4.15;100.00;98570.47;5021879;28;20053;-63
2021/04/16 19:09:51;;;;;;;1999.90;999.90;;;;;;;4.13;100.00;98576.22;5019715;28;20677;-63
2021/04/16 19:12:25;;;;;;;1999.90;999.90;;;;;;;4.35;100.00;98566.88;5018363;28;20575;-63
2021/04/16 19:14:53;;;;;;;1999.90;999.90;;;;;;;4.47;100.00;98567.34;5001258;28;20460;-63
2021/04/16 19:17:21;;;;;;;1999.90;999.90;;;;;;;4.06;100.00;98559.28;5021771;28;20181;-63
2021/04/16 19:19:48;;;;;;;1999.90;999.90;;;;;;;4.30;100.00;98555.91;5019999;28;20404;-63
2021/04/16 19:22:37;;;;;;;1999.90;999.90;;;;;;;4.03;100.00;98560.66;5020354;28;21040;-62
2021/04/16 19:25:10;;;;;;;1999.90;999.90;;;;;;;3.91;100.00;98573.00;5020223;28;20053;-63
2021/04/16 19:27:36;;;;;;;1999.90;999.90;;;;;;;3.71;100.00;98571.94;5021359;28;20057;-63
2021/04/16 19:30:06;;;;;;;1999.90;999.90;;;;;;;4.10;100.00;98568.56;5020194;28;20107;-63
2021/04/16 19:32:32;;;;;;;1999.90;999.90;;;;;;;3.90;100.00;98565.88;5019039;28;20096;-63
2021/04/16 19:34:58;;;;;;;1999.90;999.90;;;;;;;3.64;100.00;98560.44;5018861;28;20054;-63
2021/04/16 19:37:29;;;;;;;1999.90;999.90;;;;;;;3.82;100.00;98557.13;5020630;28;20139;-62
2021/04/16 19:40:00;;;;;;;1999.90;999.90;;;;;;;3.69;100.00;98558.53;5017690;28;20429;-63
2021/04/16 19:42:26;;;;;;;1999.90;999.90;;;;;;;3.67;100.00;98554.44;5018274;28;20053;-62
2021/04/16 19:44:52;;;;;;;1999.90;999.90;;;;;;;3.88;100.00;98549.75;5015720;28;20076;-62
2021/04/16 19:51:25;;;;;;;1999.90;999.90;;;;;;;3.71;100.00;98561.00;4997091;28;20050;-62
2021/04/16 20:07:46;;;;;;;1999.90;999.90;;;;;;;4.20;100.00;98549.38;5019884;28;20061;-63
2021/04/16 20:18:05;;;;;;;1999.90;999.90;;;;;;;3.72;100.00;98539.91;5017788;28;20061;-62
2021/04/16 20:20:40;;;;;;;1999.90;999.90;;;;;;;3.73;100.00;98542.38;5014254;28;20104;-63
2021/04/16 20:23:07;;;;;;;1999.90;999.90;;;;;;;3.51;100.00;98540.78;5019373;28;20057;-62
2021/04/16 20:25:38;;;;;;;1999.90;999.90;;;;;;;4.04;100.00;98539.59;5020505;28;20579;-63
2021/04/16 20:28:05;;;;;;;1999.90;999.90;;;;;;;3.98;100.00;98529.75;5014131;28;20065;-63
2021/04/16 20:30:38;;;;;;;1999.90;999.90;;;;;;;4.14;100.00;98531.34;5020929;28;20143;-64
2021/04/16 20:33:13;;;;;;;1999.90;999.90;;;;;;;4.20;100.00;98530.22;5018032;28;20444;-63
2021/04/16 20:35:40;;;;;;;1999.90;999.90;;;;;;;4.31;100.00;98530.19;5023267;28;20064;-64
2021/04/16 20:38:10;;;;;;;1999.90;999.90;;;;;;;4.10;100.00;98527.50;5018318;28;20068;-63
2021/04/16 20:40:43;;;;;;;1999.90;999.90;;;;;;;3.81;100.00;98533.63;5021068;28;20056;-62
2021/04/16 20:43:16;;;;;;;1999.90;999.90;;;;;;;4.03;100.00;98525.09;5017409;28;20053;-62
2021/04/16 20:45:42;;;;;;;1999.90;999.90;;;;;;;3.88;100.00;98516.91;5020118;28;20061;-63
2021/04/16 20:48:13;;;;;;;1999.90;999.90;;;;;;;3.62;100.00;98525.16;5020109;28;20656;-62
2021/04/16 20:50:40;;;;;;;1999.90;999.90;;;;;;;4.22;100.00;98522.53;5015768;28;20440;-63
2021/04/16 20:53:07;;;;;;;1999.90;999.90;;;;;;;4.48;100.00;98518.88;5020833;28;20064;-63
2021/04/16 20:55:37;;;;;;;1999.90;999.90;;;;;;;4.67;99.67;98522.59;5018594;28;20139;-63
2021/04/16 20:58:04;;;;;;;1999.90;999.90;;;;;;;4.72;98.95;98521.78;5022961;28;20474;-63
2021/04/16 21:00:34;;;;;;;1999.90;999.90;;;;;;;4.26;100.00;98520.06;5016592;28;20065;-62
2021/04/16 21:03:06;;;;;;;1999.90;999.90;;;;;;;4.08;100.00;98521.50;5017991;28;20069;-63
2021/04/16 21:05:38;;;;;;;1999.90;999.90;;;;;;;4.21;100.00;98515.44;5014631;28;20073;-63
2021/04/16 21:08:13;;;;;;;1999.90;999.90;;;;;;;4.62;100.00;98519.91;5022169;28;20465;-63
2021/04/16 21:10:39;;;;;;;1999.90;999.90;;;;;;;4.32;100.00;98521.69;5019978;28;20064;-63
2021/04/16 21:13:08;;;;;;;1999.90;999.90;;;;;;;4.35;100.00;98525.78;5021661;28;20085;-65
2021/04/16 21:15:35;;;;;;;1999.90;999.90;;;;;;;4.12;100.00;98528.03;5023311;28;20459;-62
2021/04/16 21:18:10;;;;;;;1999.90;999.90;;;;;;;4.01;100.00;98526.47;5020730;28;20057;-62
2021/04/16 21:20:46;;;;;;;1999.90;999.90;;;;;;;3.95;100.00;98536.59;5023480;28;20049;-63
2021/04/16 21:23:19;;;;;;;1999.90;999.90;;;;;;;4.03;100.00;98529.72;5021568;28;20572;-63
2021/04/16 21:25:46;;;;;;;1999.90;999.90;;;;;;;3.81;100.00;98528.16;5024915;28;20105;-63
2021/04/16 21:28:12;;;;;;;1999.90;999.90;;;;;;;4.13;100.00;98524.22;5020624;28;20060;-63
2021/04/16 21:30:38;;;;;;;1999.90;999.90;;;;;;;4.49;100.00;98515.84;5023073;28;20099;-63
2021/04/16 21:33:10;;;;;;;1999.90;999.90;;;;;;;4.31;100.00;98530.19;5022850;28;20107;-63
2021/04/16 21:35:42;;;;;;;1999.90;999.90;;;;;;;4.28;100.00;98534.28;5021478;28;20454;-63
2021/04/16 21:38:19;;;;;;;1999.90;999.90;;;;;;;4.28;100.00;98530.75;5020651;28;20053;-62
2021/04/16 21:40:54;;;;;;;1999.90;999.90;;;;;;;3.95;100.00;98535.78;5005011;28;20053;-63
2021/04/16 21:43:23;;;;;;;1999.90;999.90;;;;;;;3.60;100.00;98534.75;5023937;28;20456;-62
2021/04/16 21:45:54;;;;;;;1999.90;999.90;;;;;;;3.84;100.00;98533.06;5021810;28;20072;-62
2021/04/16 21:48:27;;;;;;;1999.90;999.90;;;;;;;4.23;100.00;98520.63;5023461;28;20323;-63
2021/04/16 21:51:01;;;;;;;1999.90;999.90;;;;;;;4.04;100.00;98526.72;5022993;28;20515;-62
2021/04/16 21:53:30;;;;;;;1999.90;999.90;;;;;;;3.95;100.00;98527.56;5021883;28;20054;-62
2021/04/16 21:55:57;;;;;;;1999.90;999.90;;;;;;;3.92;100.00;98531.69;5025108;28;20064;-63
2021/04/16 21:58:24;;;;;;;1999.90;999.90;;;;;;;3.88;100.00;98523.22;5022170;28;20062;-63
2021/04/16 22:01:14;;;;;;;1999.90;999.90;;;;;;;4.10;100.00;98530.25;5021640;28;20061;-63
2021/04/16 22:03:45;;;;;;;1999.90;999.90;;;;;;;3.98;100.00;98532.50;5022036;28;20755;-62
2021/04/16 22:06:35;;;;;;;1999.90;999.90;;;;;;;3.70;100.00;98532.81;5023023;28;20057;-62
2021/04/16 22:09:07;;;;;;;1999.90;999.90;;;;;;;3.53;100.00;98533.13;5007726;28;20127;-62
2021/04/16 22:11:45;;;;;;;1999.90;999.90;;;;;;;3.98;100.00;98529.75;5021095;28;20127;-63
2021/04/16 22:14:21;;;;;;;1999.90;999.90;;;;;;;4.30;100.00;98521.16;5027250;28;20057;-62
2021/04/16 22:16:51;;;;;;;1999.90;999.90;;;;;;;4.05;100.00;98527.53;5026568;28;20072;-62
2021/04/16 22:19:18;;;;;;;1999.90;999.90;;;;;;;4.09;100.00;98530.53;5023693;28;20060;-63
2021/04/16 22:21:52;;;;;;;1999.90;999.90;;;;;;;4.17;100.00;98527.25;5019680;28;20099;-63
2021/04/16 22:24:34;;;;;;;1999.90;999.90;;;;;;;4.12;100.00;98524.50;5027186;28;20524;-62
2021/04/16 22:27:24;;;;;;;1999.90;999.90;;;;;;;4.09;100.00;98530.53;5023443;28;20484;-63
2021/04/16 22:30:02;;;;;;;1999.90;999.90;;;;;;;3.67;100.00;98527.06;5025736;28;20061;-63
2021/04/16 22:32:29;;;;;;;1999.90;999.90;;;;;;;3.92;100.00;98520.72;5024385;28;20041;-63
2021/04/16 22:34:55;;;;;;;1999.90;999.90;;;;;;;3.89;100.00;98515.81;5025416;28;20484;-63
2021/04/16 22:37:25;;;;;;;1999.90;999.90;;;;;;;4.20;100.00;98523.94;5024528;28;20058;-63
2021/04/16 22:39:54;;;;;;;1999.90;999.90;;;;;;;3.71;100.00;98517.22;5021194;28;20127;-63
2021/04/16 22:42:24;;;;;;;1999.90;999.90;;;;;;;4.25;100.00;98520.34;5024875;28;20053;-63
2021/04/16 22:45:07;;;;;;;1999.90;999.90;;;;;;;4.11;100.00;98515.47;5021245;28;20049;-63
2021/04/16 22:47:36;;;;;;;1999.90;999.90;;;;;;;3.83;100.00;98525.94;5024652;28;20485;-63
2021/04/16 22:50:17;;;;;;;1999.90;999.90;;;;;;;3.72;100.00;98516.13;5023131;28;20111;-64
2021/04/16 22:52:49;;;;;;;1999.90;999.90;;;;;;;3.86;100.00;98508.97;5020936;28;20107;-63
2021/04/16 22:55:32;;;;;;;1999.90;999.90;;;;;;;3.88;100.00;98515.00;5026613;28;20053;-63
2021/04/16 22:58:00;;;;;;;1999.90;999.90;;;;;;;4.09;100.00;98509.44;5024076;28;20493;-63
2021/04/16 23:00:31;;;;;;;1999.90;999.90;;;;;;;3.97;100.00;98504.28;5026162;28;20493;-63
2021/04/16 23:03:01;;;;;;;1999.90;999.90;;;;;;;3.77;100.00;98510.66;5022670;28;20049;-63
2021/04/16 23:05:38;;;;;;;1999.90;999.90;;;;;;;3.84;100.00;98511.19;5030928;28;20145;-63
2021/04/16 23:08:16;;;;;;;1999.90;999.90;;;;;;;4.23;100.00;98496.00;5021923;28;20058;-63
2021/04/16 23:10:49;;;;;;;1999.90;999.90;;;;;;;3.95;100.00;98498.28;5019916;28;20140;-63
2021/04/16 23:13:28;;;;;;;1999.90;999.90;;;;;;;3.75;100.00;98501.06;5022719;28;20045;-63
2021/04/16 23:15:55;;;;;;;1999.90;999.90;;;;;;;4.09;100.00;98493.03;5021346;28;20049;-63
2021/04/16 23:18:22;;;;;;;1999.90;999.90;;;;;;;4.30;100.00;98495.69;5025466;28;20405;-63
2021/04/16 23:20:52;;;;;;;1999.90;999.90;;;;;;;3.97;100.00;98496.06;5021476;28;20049;-63
2021/04/16 23:23:32;;;;;;;1999.90;999.90;;;;;;;4.33;100.00;98490.47;5022670;28;20064;-63
2021/04/16 23:26:00;;;;;;;1999.90;999.90;;;;;;;4.14;100.00;98498.50;5020886;28;20053;-63
2021/04/16 23:28:30;;;;;;;1999.90;999.90;;;;;;;4.18;100.00;98485.91;5021331;28;20053;-63
2021/04/16 23:31:01;;;;;;;1999.90;999.90;;;;;;;4.53;99.67;98488.72;5023982;28;20099;-63
2021/04/16 23:34:05;;;;;;;1999.90;999.90;;;;;;;4.41;98.68;98484.41;5036751;28;20467;-63
2021/04/16 23:36:35;;;;;;;1999.90;999.90;;;;;;;4.18;99.74;98477.69;5025313;28;20052;-63
2021/04/16 23:39:06;;;;;;;1999.90;999.90;;;;;;;4.27;99.46;98477.09;5023205;28;20504;-63
2021/04/16 23:41:35;;;;;;;1999.90;999.90;;;;;;;3.69;100.00;98483.84;5021782;28;20041;-63
2021/04/16 23:44:06;;;;;;;1999.90;999.90;;;;;;;4.12;100.00;98473.31;5023298;28;20080;-63
2021/04/16 23:46:34;;;;;;;1999.90;999.90;;;;;;;4.44;100.00;98474.81;5023100;28;20107;-63
2021/04/16 23:49:00;;;;;;;1999.90;999.90;;;;;;;4.57;99.09;98462.41;5018171;28;20456;-63
2021/04/16 23:51:26;;;;;;;1999.90;999.90;;;;;;;4.36;99.20;98467.19;5023811;28;20049;-63
2021/04/16 23:53:52;;;;;;;1999.90;999.90;;;;;;;4.23;99.98;98466.69;5023254;28;20056;-63
2021/04/16 23:56:19;;;;;;;1999.90;999.90;;;;;;;3.91;100.00;98460.81;5022721;28;20064;-63
2021/04/16 23:58:45;;;;;;;1999.90;999.90;;;;;;;3.77;100.00;98464.16;5026598;28;20069;-63
